Terminal Aerodrome Forecast
Issued by NWS

Home | Current Version | Previous Version | Text Only | Print | Product List | Glossary On
Versions: 1 2 3 4 5 6 7 8 9 10 11 12 13 14 15 16 17 18 19 20 21 22 23 24 25 26 27 28 29 30 31 32 33 34 35 36 37 38 39 40
000
FTUS45 KCYS 070059 AAA
TAFRWL
TAF AMD
KRWL 070059Z 0701/0724 36012KT P6SM -RA BKN035 OVC050
      TEMPO 0701/0703 BKN015 OVC050
     FM070300 04007KT P6SM -RA BKN035 OVC050
     FM071000 04006KT P6SM SCT007 OVC015
     FM071300 04008KT P6SM BKN035 OVC050
     FM071800 04010KT P6SM VCTS BKN050CB=

USA.gov is the U.S. government's official web portal to all federal, state and local government web resources and services.